sensor_id;sensor_type;location;lat;lon;timestamp;pressure;altitude;pressure_sealevel;temperature
15709;BMP180;7954;51.914;8.420;2022-12-29T00:00:59;99039.06;;;16.87
15709;BMP180;7954;51.914;8.420;2022-12-29T00:03:29;99025.59;;;16.88
15709;BMP180;7954;51.914;8.420;2022-12-29T00:05:58;99057.97;;;16.96
15709;BMP180;7954;51.914;8.420;2022-12-29T00:08:27;99016.84;;;16.93
15709;BMP180;7954;51.914;8.420;2022-12-29T00:11:06;99020.28;;;16.93
15709;BMP180;7954;51.914;8.420;2022-12-29T00:13:34;99030.47;;;16.93
15709;BMP180;7954;51.914;8.420;2022-12-29T00:16:19;99025.53;;;17.09
15709;BMP180;7954;51.914;8.420;2022-12-29T00:18:49;99010.44;;;17.10
15709;BMP180;7954;51.914;8.420;2022-12-29T00:21:19;99001.34;;;17.05
15709;BMP180;7954;51.914;8.420;2022-12-29T00:24:06;99003.13;;;17.13
15709;BMP180;7954;51.914;8.420;2022-12-29T00:26:53;98991.47;;;17.08
15709;BMP180;7954;51.914;8.420;2022-12-29T00:29:40;98981.81;;;17.13
15709;BMP180;7954;51.914;8.420;2022-12-29T00:32:25;98988.56;;;17.12
15709;BMP180;7954;51.914;8.420;2022-12-29T00:35:13;98984.16;;;17.18
15709;BMP180;7954;51.914;8.420;2022-12-29T00:37:46;98983.63;;;17.21
15709;BMP180;7954;51.914;8.420;2022-12-29T00:40:32;98981.09;;;17.28
15709;BMP180;7954;51.914;8.420;2022-12-29T00:43:18;98969.78;;;17.33
15709;BMP180;7954;51.914;8.420;2022-12-29T00:46:14;98972.69;;;17.29
15709;BMP180;7954;51.914;8.420;2022-12-29T00:48:46;98956.41;;;17.42
15709;BMP180;7954;51.914;8.420;2022-12-29T00:51:32;98973.72;;;17.44
15709;BMP180;7954;51.914;8.420;2022-12-29T00:54:00;98966.44;;;17.47
15709;BMP180;7954;51.914;8.420;2022-12-29T00:56:28;98969.53;;;17.45
15709;BMP180;7954;51.914;8.420;2022-12-29T00:59:00;98965.34;;;17.38
15709;BMP180;7954;51.914;8.420;2022-12-29T01:01:29;98951.63;;;17.52
15709;BMP180;7954;51.914;8.420;2022-12-29T01:03:57;98947.13;;;17.42
15709;BMP180;7954;51.914;8.420;2022-12-29T01:06:29;98953.84;;;17.49
15709;BMP180;7954;51.914;8.420;2022-12-29T01:09:00;98948.91;;;17.50
15709;BMP180;7954;51.914;8.420;2022-12-29T01:11:45;98946.34;;;17.50
15709;BMP180;7954;51.914;8.420;2022-12-29T01:14:13;98949.25;;;17.53
15709;BMP180;7954;51.914;8.420;2022-12-29T01:16:41;98941.97;;;17.56
15709;BMP180;7954;51.914;8.420;2022-12-29T01:19:09;98946.13;;;17.56
15709;BMP180;7954;51.914;8.420;2022-12-29T01:21:36;98949.63;;;17.56
15709;BMP180;7954;51.914;8.420;2022-12-29T01:24:07;98947.41;;;17.59
15709;BMP180;7954;51.914;8.420;2022-12-29T01:26:35;98951.38;;;17.64
15709;BMP180;7954;51.914;8.420;2022-12-29T01:29:02;98926.66;;;17.56
15709;BMP180;7954;51.914;8.420;2022-12-29T01:31:30;98938.94;;;17.45
15709;BMP180;7954;51.914;8.420;2022-12-29T01:33:59;98932.50;;;17.48
15709;BMP180;7954;51.914;8.420;2022-12-29T01:36:26;98928.50;;;17.50
15709;BMP180;7954;51.914;8.420;2022-12-29T01:38:54;98920.84;;;17.50
15709;BMP180;7954;51.914;8.420;2022-12-29T01:41:24;98925.59;;;17.47
15709;BMP180;7954;51.914;8.420;2022-12-29T01:43:54;98903.72;;;17.49
15709;BMP180;7954;51.914;8.420;2022-12-29T01:46:25;98905.38;;;17.42
15709;BMP180;7954;51.914;8.420;2022-12-29T01:48:59;98910.41;;;17.56
15709;BMP180;7954;51.914;8.420;2022-12-29T01:51:29;98906.56;;;17.59
15709;BMP180;7954;51.914;8.420;2022-12-29T01:54:01;98908.16;;;17.66
15709;BMP180;7954;51.914;8.420;2022-12-29T01:56:34;98900.13;;;17.70
15709;BMP180;7954;51.914;8.420;2022-12-29T01:59:05;98904.13;;;17.75
15709;BMP180;7954;51.914;8.420;2022-12-29T02:01:35;98902.84;;;17.78
15709;BMP180;7954;51.914;8.420;2022-12-29T02:04:04;98913.50;;;17.60
15709;BMP180;7954;51.914;8.420;2022-12-29T02:06:37;98916.59;;;17.58
15709;BMP180;7954;51.914;8.420;2022-12-29T02:09:07;98904.38;;;17.62
15709;BMP180;7954;51.914;8.420;2022-12-29T02:11:37;98916.84;;;17.52
15709;BMP180;7954;51.914;8.420;2022-12-29T02:14:09;98917.50;;;17.58
15709;BMP180;7954;51.914;8.420;2022-12-29T02:16:55;98900.72;;;17.67
15709;BMP180;7954;51.914;8.420;2022-12-29T02:22:56;98903.38;;;17.46
15709;BMP180;7954;51.914;8.420;2022-12-29T02:25:46;98888.78;;;17.45
15709;BMP180;7954;51.914;8.420;2022-12-29T02:28:39;98896.53;;;17.61
15709;BMP180;7954;51.914;8.420;2022-12-29T02:31:16;98894.97;;;17.47
15709;BMP180;7954;51.914;8.420;2022-12-29T02:33:56;98885.28;;;17.52
15709;BMP180;7954;51.914;8.420;2022-12-29T02:36:33;98898.81;;;17.44
15709;BMP180;7954;51.914;8.420;2022-12-29T02:39:10;98897.47;;;17.54
15709;BMP180;7954;51.914;8.420;2022-12-29T02:41:48;98889.78;;;17.61
15709;BMP180;7954;51.914;8.420;2022-12-29T02:44:25;98868.13;;;17.58
15709;BMP180;7954;51.914;8.420;2022-12-29T02:47:00;98876.63;;;17.65
15709;BMP180;7954;51.914;8.420;2022-12-29T02:49:34;98869.13;;;17.74
15709;BMP180;7954;51.914;8.420;2022-12-29T02:52:07;98866.72;;;17.75
15709;BMP180;7954;51.914;8.420;2022-12-29T02:54:38;98851.66;;;17.92
15709;BMP180;7954;51.914;8.420;2022-12-29T02:57:12;98866.97;;;17.92
15709;BMP180;7954;51.914;8.420;2022-12-29T02:59:44;98842.63;;;17.80
15709;BMP180;7954;51.914;8.420;2022-12-29T03:02:26;98858.66;;;17.79
15709;BMP180;7954;51.914;8.420;2022-12-29T03:05:16;98864.75;;;17.95
15709;BMP180;7954;51.914;8.420;2022-12-29T03:07:52;98844.09;;;17.78
15709;BMP180;7954;51.914;8.420;2022-12-29T03:10:32;98846.81;;;17.80
15709;BMP180;7954;51.914;8.420;2022-12-29T03:13:02;98848.41;;;17.86
15709;BMP180;7954;51.914;8.420;2022-12-29T03:15:55;98838.19;;;17.86
15709;BMP180;7954;51.914;8.420;2022-12-29T03:18:40;98851.25;;;17.96
15709;BMP180;7954;51.914;8.420;2022-12-29T03:21:12;98849.44;;;17.95
15709;BMP180;7954;51.914;8.420;2022-12-29T03:23:44;98846.31;;;17.98
15709;BMP180;7954;51.914;8.420;2022-12-29T03:26:16;98845.34;;;18.04
15709;BMP180;7954;51.914;8.420;2022-12-29T03:28:48;98852.38;;;17.91
15709;BMP180;7954;51.914;8.420;2022-12-29T03:31:19;98835.94;;;17.96
15709;BMP180;7954;51.914;8.420;2022-12-29T03:33:49;98834.84;;;17.94
15709;BMP180;7954;51.914;8.420;2022-12-29T03:36:23;98848.44;;;18.02
15709;BMP180;7954;51.914;8.420;2022-12-29T03:38:58;98833.66;;;18.06
15709;BMP180;7954;51.914;8.420;2022-12-29T03:41:30;98829.78;;;18.09
15709;BMP180;7954;51.914;8.420;2022-12-29T03:43:59;98820.06;;;18.14
15709;BMP180;7954;51.914;8.420;2022-12-29T03:46:27;98821.22;;;18.09
15709;BMP180;7954;51.914;8.420;2022-12-29T03:48:56;98818.31;;;18.06
15709;BMP180;7954;51.914;8.420;2022-12-29T03:51:24;98804.75;;;18.14
15709;BMP180;7954;51.914;8.420;2022-12-29T03:53:52;98812.13;;;18.04
15709;BMP180;7954;51.914;8.420;2022-12-29T03:56:20;98815.94;;;18.07
15709;BMP180;7954;51.914;8.420;2022-12-29T03:58:49;98796.81;;;18.04
15709;BMP180;7954;51.914;8.420;2022-12-29T04:01:17;98811.97;;;18.02
15709;BMP180;7954;51.914;8.420;2022-12-29T04:03:45;98812.78;;;17.95
15709;BMP180;7954;51.914;8.420;2022-12-29T04:06:14;98809.13;;;18.15
15709;BMP180;7954;51.914;8.420;2022-12-29T04:08:42;98804.97;;;18.31
15709;BMP180;7954;51.914;8.420;2022-12-29T04:11:10;98800.44;;;18.06
15709;BMP180;7954;51.914;8.420;2022-12-29T04:13:38;98819.41;;;18.08
15709;BMP180;7954;51.914;8.420;2022-12-29T04:16:07;98804.00;;;18.15
15709;BMP180;7954;51.914;8.420;2022-12-29T04:18:35;98813.28;;;17.99
15709;BMP180;7954;51.914;8.420;2022-12-29T04:21:04;98820.59;;;17.96
15709;BMP180;7954;51.914;8.420;2022-12-29T04:23:36;98812.06;;;17.96
15709;BMP180;7954;51.914;8.420;2022-12-29T04:26:06;98811.00;;;17.87
15709;BMP180;7954;51.914;8.420;2022-12-29T04:28:35;98798.34;;;17.95
15709;BMP180;7954;51.914;8.420;2022-12-29T04:31:04;98809.19;;;18.08
15709;BMP180;7954;51.914;8.420;2022-12-29T04:33:31;98806.66;;;18.08
15709;BMP180;7954;51.914;8.420;2022-12-29T04:35:59;98784.38;;;18.07
15709;BMP180;7954;51.914;8.420;2022-12-29T04:38:27;98789.97;;;17.96
15709;BMP180;7954;51.914;8.420;2022-12-29T04:40:59;98787.69;;;18.06
15709;BMP180;7954;51.914;8.420;2022-12-29T04:43:27;98778.84;;;18.18
15709;BMP180;7954;51.914;8.420;2022-12-29T04:45:55;98779.56;;;18.17
15709;BMP180;7954;51.914;8.420;2022-12-29T04:48:23;98782.47;;;17.98
15709;BMP180;7954;51.914;8.420;2022-12-29T04:50:51;98777.50;;;17.99
15709;BMP180;7954;51.914;8.420;2022-12-29T04:53:19;98784.81;;;18.03
15709;BMP180;7954;51.914;8.420;2022-12-29T04:55:48;98786.00;;;17.91
15709;BMP180;7954;51.914;8.420;2022-12-29T04:58:20;98790.28;;;17.99
15709;BMP180;7954;51.914;8.420;2022-12-29T05:00:49;98773.63;;;17.87
15709;BMP180;7954;51.914;8.420;2022-12-29T05:03:18;98789.63;;;17.93
15709;BMP180;7954;51.914;8.420;2022-12-29T05:05:46;98775.47;;;18.03
15709;BMP180;7954;51.914;8.420;2022-12-29T05:08:13;98781.44;;;18.11
15709;BMP180;7954;51.914;8.420;2022-12-29T05:10:44;98772.47;;;18.14
15709;BMP180;7954;51.914;8.420;2022-12-29T05:13:12;98773.34;;;18.15
15709;BMP180;7954;51.914;8.420;2022-12-29T05:15:46;98758.19;;;18.16
15709;BMP180;7954;51.914;8.420;2022-12-29T05:18:14;98769.91;;;18.14
15709;BMP180;7954;51.914;8.420;2022-12-29T05:20:43;98745.97;;;18.14
15709;BMP180;7954;51.914;8.420;2022-12-29T05:23:11;98775.31;;;18.02
15709;BMP180;7954;51.914;8.420;2022-12-29T05:25:39;98766.25;;;18.12
15709;BMP180;7954;51.914;8.420;2022-12-29T05:28:07;98760.56;;;18.15
15709;BMP180;7954;51.914;8.420;2022-12-29T05:30:35;98745.63;;;18.18
15709;BMP180;7954;51.914;8.420;2022-12-29T05:33:05;98739.00;;;18.04
15709;BMP180;7954;51.914;8.420;2022-12-29T05:35:33;98745.91;;;18.05
15709;BMP180;7954;51.914;8.420;2022-12-29T05:38:01;98752.59;;;18.12
15709;BMP180;7954;51.914;8.420;2022-12-29T05:40:29;98745.97;;;18.21
15709;BMP180;7954;51.914;8.420;2022-12-29T05:42:58;98743.09;;;18.18
15709;BMP180;7954;51.914;8.420;2022-12-29T05:45:26;98752.66;;;18.05
15709;BMP180;7954;51.914;8.420;2022-12-29T05:47:53;98740.56;;;18.11
15709;BMP180;7954;51.914;8.420;2022-12-29T05:50:23;98744.88;;;18.19
15709;BMP180;7954;51.914;8.420;2022-12-29T05:52:52;98748.19;;;18.18
15709;BMP180;7954;51.914;8.420;2022-12-29T05:55:20;98756.03;;;18.19
15709;BMP180;7954;51.914;8.420;2022-12-29T05:57:48;98749.09;;;18.18
15709;BMP180;7954;51.914;8.420;2022-12-29T06:00:16;98744.78;;;18.10
15709;BMP180;7954;51.914;8.420;2022-12-29T06:02:44;98754.06;;;18.10
15709;BMP180;7954;51.914;8.420;2022-12-29T06:05:12;98749.47;;;18.14
15709;BMP180;7954;51.914;8.420;2022-12-29T06:07:41;98772.09;;;18.11
15709;BMP180;7954;51.914;8.420;2022-12-29T06:10:11;98761.88;;;18.11
15709;BMP180;7954;51.914;8.420;2022-12-29T06:12:39;98755.56;;;18.08
15709;BMP180;7954;51.914;8.420;2022-12-29T06:15:07;98753.84;;;18.15
15709;BMP180;7954;51.914;8.420;2022-12-29T06:17:35;98750.47;;;18.08
15709;BMP180;7954;51.914;8.420;2022-12-29T06:20:04;98765.44;;;18.05
15709;BMP180;7954;51.914;8.420;2022-12-29T06:22:31;98775.31;;;18.02
15709;BMP180;7954;51.914;8.420;2022-12-29T06:25:01;98756.81;;;17.89
15709;BMP180;7954;51.914;8.420;2022-12-29T06:27:31;98782.47;;;17.98
15709;BMP180;7954;51.914;8.420;2022-12-29T06:29:59;98781.84;;;18.07
15709;BMP180;7954;51.914;8.420;2022-12-29T06:32:27;98801.84;;;18.18
15709;BMP180;7954;51.914;8.420;2022-12-29T06:34:55;98799.03;;;18.01
15709;BMP180;7954;51.914;8.420;2022-12-29T06:37:23;98785.44;;;18.09
15709;BMP180;7954;51.914;8.420;2022-12-29T06:39:51;98786.38;;;18.09
15709;BMP180;7954;51.914;8.420;2022-12-29T06:42:21;98833.84;;;17.56
15709;BMP180;7954;51.914;8.420;2022-12-29T06:44:50;98833.31;;;17.29
15709;BMP180;7954;51.914;8.420;2022-12-29T06:47:18;98833.50;;;16.80
15709;BMP180;7954;51.914;8.420;2022-12-29T06:49:46;98831.31;;;16.76
15709;BMP180;7954;51.914;8.420;2022-12-29T06:52:14;98832.72;;;16.88
15709;BMP180;7954;51.914;8.420;2022-12-29T06:54:42;98826.63;;;17.09
15709;BMP180;7954;51.914;8.420;2022-12-29T06:57:10;98830.34;;;16.97
15709;BMP180;7954;51.914;8.420;2022-12-29T06:59:40;98832.16;;;16.98
15709;BMP180;7954;51.914;8.420;2022-12-29T07:02:09;98851.75;;;17.13
15709;BMP180;7954;51.914;8.420;2022-12-29T07:04:38;98846.28;;;17.17
15709;BMP180;7954;51.914;8.420;2022-12-29T07:07:06;98845.63;;;17.40
15709;BMP180;7954;51.914;8.420;2022-12-29T07:09:34;98825.63;;;17.58
15709;BMP180;7954;51.914;8.420;2022-12-29T07:12:01;98817.53;;;17.69
15709;BMP180;7954;51.914;8.420;2022-12-29T07:14:30;98806.09;;;17.88
15709;BMP180;7954;51.914;8.420;2022-12-29T07:17:07;98814.81;;;17.90
15709;BMP180;7954;51.914;8.420;2022-12-29T07:19:35;98855.78;;;17.76
15709;BMP180;7954;51.914;8.420;2022-12-29T07:22:03;98865.41;;;17.56
15709;BMP180;7954;51.914;8.420;2022-12-29T07:24:31;98899.94;;;16.75
15709;BMP180;7954;51.914;8.420;2022-12-29T07:26:59;98918.38;;;15.96
15709;BMP180;7954;51.914;8.420;2022-12-29T07:29:27;98936.81;;;15.20
15709;BMP180;7954;51.914;8.420;2022-12-29T07:31:55;98923.22;;;14.86
15709;BMP180;7954;51.914;8.420;2022-12-29T07:34:25;98930.66;;;14.85
15709;BMP180;7954;51.914;8.420;2022-12-29T07:36:53;98932.69;;;14.94
15709;BMP180;7954;51.914;8.420;2022-12-29T07:39:21;98920.06;;;14.75
15709;BMP180;7954;51.914;8.420;2022-12-29T07:41:49;98921.72;;;14.81
15709;BMP180;7954;51.914;8.420;2022-12-29T07:44:18;98930.34;;;14.96
15709;BMP180;7954;51.914;8.420;2022-12-29T07:46:46;98925.53;;;15.11
15709;BMP180;7954;51.914;8.420;2022-12-29T07:49:23;98925.34;;;15.17
15709;BMP180;7954;51.914;8.420;2022-12-29T07:51:52;98937.03;;;15.22
15709;BMP180;7954;51.914;8.420;2022-12-29T07:54:20;98938.28;;;15.18
15709;BMP180;7954;51.914;8.420;2022-12-29T07:56:50;98944.16;;;15.24
15709;BMP180;7954;51.914;8.420;2022-12-29T07:59:18;98932.69;;;15.28
15709;BMP180;7954;51.914;8.420;2022-12-29T08:01:47;98939.44;;;15.27
15709;BMP180;7954;51.914;8.420;2022-12-29T08:04:15;98948.16;;;15.29
15709;BMP180;7954;51.914;8.420;2022-12-29T08:06:43;98940.72;;;15.31
15709;BMP180;7954;51.914;8.420;2022-12-29T08:09:13;98954.69;;;15.27
15709;BMP180;7954;51.914;8.420;2022-12-29T08:11:49;98948.72;;;15.27
15709;BMP180;7954;51.914;8.420;2022-12-29T08:14:17;98949.81;;;15.36
15709;BMP180;7954;51.914;8.420;2022-12-29T08:16:45;98958.22;;;15.48
15709;BMP180;7954;51.914;8.420;2022-12-29T08:19:13;98959.88;;;15.48
15709;BMP180;7954;51.914;8.420;2022-12-29T08:21:41;98965.09;;;15.43
15709;BMP180;7954;51.914;8.420;2022-12-29T08:24:10;98977.09;;;15.37
15709;BMP180;7954;51.914;8.420;2022-12-29T08:26:39;98963.06;;;15.33
15709;BMP180;7954;51.914;8.420;2022-12-29T08:29:07;98950.59;;;15.42
15709;BMP180;7954;51.914;8.420;2022-12-29T08:31:35;98967.03;;;15.31
15709;BMP180;7954;51.914;8.420;2022-12-29T08:34:04;98965.22;;;15.30
15709;BMP180;7954;51.914;8.420;2022-12-29T08:36:32;98966.38;;;15.13
15709;BMP180;7954;51.914;8.420;2022-12-29T08:39:00;98963.66;;;15.11
15709;BMP180;7954;51.914;8.420;2022-12-29T08:41:28;98975.66;;;15.19
15709;BMP180;7954;51.914;8.420;2022-12-29T08:43:58;98976.00;;;15.42
15709;BMP180;7954;51.914;8.420;2022-12-29T08:46:26;98971.81;;;15.42
15709;BMP180;7954;51.914;8.420;2022-12-29T08:48:55;98995.84;;;15.51
15709;BMP180;7954;51.914;8.420;2022-12-29T08:51:23;98994.38;;;15.46
15709;BMP180;7954;51.914;8.420;2022-12-29T08:53:51;98996.91;;;15.39
15709;BMP180;7954;51.914;8.420;2022-12-29T08:56:20;99014.88;;;15.41
15709;BMP180;7954;51.914;8.420;2022-12-29T08:58:50;98997.22;;;15.35
15709;BMP180;7954;51.914;8.420;2022-12-29T09:01:20;99005.44;;;15.20
15709;BMP180;7954;51.914;8.420;2022-12-29T09:03:49;98991.78;;;15.06
15709;BMP180;7954;51.914;8.420;2022-12-29T09:06:37;99001.53;;;15.03
15709;BMP180;7954;51.914;8.420;2022-12-29T09:09:06;98999.69;;;14.69
15709;BMP180;7954;51.914;8.420;2022-12-29T09:11:34;99004.63;;;14.74
15709;BMP180;7954;51.914;8.420;2022-12-29T09:14:02;98995.06;;;14.85
15709;BMP180;7954;51.914;8.420;2022-12-29T09:16:31;99006.53;;;14.89
15709;BMP180;7954;51.914;8.420;2022-12-29T09:19:00;99002.75;;;14.92
15709;BMP180;7954;51.914;8.420;2022-12-29T09:21:28;98999.50;;;14.93
15709;BMP180;7954;51.914;8.420;2022-12-29T09:23:56;98991.00;;;15.00
15709;BMP180;7954;51.914;8.420;2022-12-29T09:26:24;98992.13;;;15.09
15709;BMP180;7954;51.914;8.420;2022-12-29T09:28:52;98992.31;;;15.03
15709;BMP180;7954;51.914;8.420;2022-12-29T09:31:20;99000.59;;;14.95
15709;BMP180;7954;51.914;8.420;2022-12-29T09:33:50;99022.25;;;14.79
15709;BMP180;7954;51.914;8.420;2022-12-29T09:36:18;99005.50;;;14.75
15709;BMP180;7954;51.914;8.420;2022-12-29T09:38:46;99011.00;;;14.58
15709;BMP180;7954;51.914;8.420;2022-12-29T09:41:19;98997.97;;;14.62
15709;BMP180;7954;51.914;8.420;2022-12-29T09:44:00;99017.59;;;14.63
15709;BMP180;7954;51.914;8.420;2022-12-29T09:46:33;99021.78;;;14.63
15709;BMP180;7954;51.914;8.420;2022-12-29T09:49:15;99020.75;;;14.75
15709;BMP180;7954;51.914;8.420;2022-12-29T09:51:47;99030.00;;;14.93
15709;BMP180;7954;51.914;8.420;2022-12-29T09:54:24;99014.44;;;15.04
15709;BMP180;7954;51.914;8.420;2022-12-29T09:56:56;99020.63;;;15.06
15709;BMP180;7954;51.914;8.420;2022-12-29T09:59:32;99021.94;;;15.10
15709;BMP180;7954;51.914;8.420;2022-12-29T10:02:12;99030.19;;;15.21
15709;BMP180;7954;51.914;8.420;2022-12-29T10:04:43;99036.19;;;15.22
15709;BMP180;7954;51.914;8.420;2022-12-29T10:07:15;99039.84;;;15.24
15709;BMP180;7954;51.914;8.420;2022-12-29T10:10:01;99030.50;;;15.17
15709;BMP180;7954;51.914;8.420;2022-12-29T10:12:45;99025.19;;;15.09
15709;BMP180;7954;51.914;8.420;2022-12-29T10:15:29;99028.00;;;14.98
15709;BMP180;7954;51.914;8.420;2022-12-29T10:18:10;99033.34;;;15.06
15709;BMP180;7954;51.914;8.420;2022-12-29T10:20:48;99037.66;;;15.00
15709;BMP180;7954;51.914;8.420;2022-12-29T10:23:26;99039.84;;;15.04
15709;BMP180;7954;51.914;8.420;2022-12-29T10:25:55;99036.22;;;15.02
15709;BMP180;7954;51.914;8.420;2022-12-29T10:28:29;99034.34;;;14.94
15709;BMP180;7954;51.914;8.420;2022-12-29T10:30:59;99036.31;;;14.90
15709;BMP180;7954;51.914;8.420;2022-12-29T10:33:37;99041.69;;;15.05
15709;BMP180;7954;51.914;8.420;2022-12-29T10:36:15;99043.19;;;15.37
15709;BMP180;7954;51.914;8.420;2022-12-29T10:38:50;99038.19;;;15.50
15709;BMP180;7954;51.914;8.420;2022-12-29T10:41:21;99022.03;;;15.57
15709;BMP180;7954;51.914;8.420;2022-12-29T10:43:53;99027.16;;;15.64
15709;BMP180;7954;51.914;8.420;2022-12-29T10:46:24;99035.13;;;15.60
15709;BMP180;7954;51.914;8.420;2022-12-29T10:48:54;99017.31;;;15.60
15709;BMP180;7954;51.914;8.420;2022-12-29T10:51:26;99024.63;;;15.64
15709;BMP180;7954;51.914;8.420;2022-12-29T10:53:58;99028.66;;;15.76
15709;BMP180;7954;51.914;8.420;2022-12-29T10:56:34;99024.28;;;15.68
15709;BMP180;7954;51.914;8.420;2022-12-29T10:59:11;99007.88;;;15.66
15709;BMP180;7954;51.914;8.420;2022-12-29T11:01:47;99011.53;;;15.68
15709;BMP180;7954;51.914;8.420;2022-12-29T11:04:32;98999.22;;;15.85
15709;BMP180;7954;51.914;8.420;2022-12-29T11:07:03;99006.34;;;15.94
15709;BMP180;7954;51.914;8.420;2022-12-29T11:09:40;99007.47;;;16.03
15709;BMP180;7954;51.914;8.420;2022-12-29T11:12:20;99017.09;;;15.99
15709;BMP180;7954;51.914;8.420;2022-12-29T11:15:01;98993.06;;;15.90
15709;BMP180;7954;51.914;8.420;2022-12-29T11:17:29;99014.34;;;15.90
15709;BMP180;7954;51.914;8.420;2022-12-29T11:19:57;99015.63;;;16.01
15709;BMP180;7954;51.914;8.420;2022-12-29T11:22:28;99014.16;;;15.89
15709;BMP180;7954;51.914;8.420;2022-12-29T11:25:06;99057.22;;;15.87
15709;BMP180;7954;51.914;8.420;2022-12-29T11:27:37;99017.22;;;15.79
15709;BMP180;7954;51.914;8.420;2022-12-29T11:30:22;99030.91;;;15.94
15709;BMP180;7954;51.914;8.420;2022-12-29T11:32:51;99028.31;;;15.87
15709;BMP180;7954;51.914;8.420;2022-12-29T11:35:30;99025.06;;;15.95
15709;BMP180;7954;51.914;8.420;2022-12-29T11:38:00;99036.00;;;16.01
15709;BMP180;7954;51.914;8.420;2022-12-29T11:40:29;99036.00;;;15.94
15709;BMP180;7954;51.914;8.420;2022-12-29T11:43:00;99028.75;;;16.04
15709;BMP180;7954;51.914;8.420;2022-12-29T11:45:31;99034.53;;;15.89
15709;BMP180;7954;51.914;8.420;2022-12-29T11:48:06;99033.63;;;15.95
15709;BMP180;7954;51.914;8.420;2022-12-29T11:50:38;99028.69;;;15.90
15709;BMP180;7954;51.914;8.420;2022-12-29T11:53:16;99042.03;;;16.08
15709;BMP180;7954;51.914;8.420;2022-12-29T11:55:51;99027.69;;;16.08
15709;BMP180;7954;51.914;8.420;2022-12-29T11:58:20;99026.56;;;16.07
15709;BMP180;7954;51.914;8.420;2022-12-29T12:00:49;99031.97;;;15.89
15709;BMP180;7954;51.914;8.420;2022-12-29T12:03:20;99033.25;;;15.92
15709;BMP180;7954;51.914;8.420;2022-12-29T12:05:54;99046.78;;;16.19
15709;BMP180;7954;51.914;8.420;2022-12-29T12:08:34;99034.91;;;16.06
15709;BMP180;7954;51.914;8.420;2022-12-29T12:11:07;99050.66;;;15.82
15709;BMP180;7954;51.914;8.420;2022-12-29T12:13:40;99038.53;;;16.01
15709;BMP180;7954;51.914;8.420;2022-12-29T12:16:14;99043.13;;;16.17
15709;BMP180;7954;51.914;8.420;2022-12-29T12:18:46;99032.56;;;16.00
15709;BMP180;7954;51.914;8.420;2022-12-29T12:21:20;99035.66;;;16.11
15709;BMP180;7954;51.914;8.420;2022-12-29T12:24:07;99031.91;;;16.29
15709;BMP180;7954;51.914;8.420;2022-12-29T12:26:53;99039.66;;;16.09
15709;BMP180;7954;51.914;8.420;2022-12-29T12:29:25;99053.00;;;16.21
15709;BMP180;7954;51.914;8.420;2022-12-29T12:31:57;99033.56;;;16.28
15709;BMP180;7954;51.914;8.420;2022-12-29T12:34:32;99041.66;;;16.05
15709;BMP180;7954;51.914;8.420;2022-12-29T12:37:23;99055.09;;;16.04
15709;BMP180;7954;51.914;8.420;2022-12-29T12:40:17;99054.91;;;15.96
15709;BMP180;7954;51.914;8.420;2022-12-29T12:42:52;99056.06;;;16.18
15709;BMP180;7954;51.914;8.420;2022-12-29T12:45:34;99064.88;;;16.55
15709;BMP180;7954;51.914;8.420;2022-12-29T12:48:14;99058.31;;;16.50
15709;BMP180;7954;51.914;8.420;2022-12-29T12:50:55;99051.19;;;16.27
15709;BMP180;7954;51.914;8.420;2022-12-29T12:53:38;99094.94;;;16.04
15709;BMP180;7954;51.914;8.420;2022-12-29T12:56:37;99065.91;;;16.22
15709;BMP180;7954;51.914;8.420;2022-12-29T12:59:18;99069.31;;;16.09
15709;BMP180;7954;51.914;8.420;2022-12-29T13:01:59;99057.22;;;16.41
15709;BMP180;7954;51.914;8.420;2022-12-29T13:05:00;99079.97;;;16.47
15709;BMP180;7954;51.914;8.420;2022-12-29T13:07:40;99099.16;;;16.17
15709;BMP180;7954;51.914;8.420;2022-12-29T13:10:21;99078.16;;;16.53
15709;BMP180;7954;51.914;8.420;2022-12-29T13:13:00;99085.47;;;16.50
15709;BMP180;7954;51.914;8.420;2022-12-29T13:15:40;99094.34;;;16.39
15709;BMP180;7954;51.914;8.420;2022-12-29T13:18:18;99123.09;;;16.45
15709;BMP180;7954;51.914;8.420;2022-12-29T13:20:57;99108.19;;;16.55
15709;BMP180;7954;51.914;8.420;2022-12-29T13:23:34;99111.13;;;16.51
15709;BMP180;7954;51.914;8.420;2022-12-29T13:26:11;99110.97;;;16.77
15709;BMP180;7954;51.914;8.420;2022-12-29T13:28:49;99086.19;;;16.63
15709;BMP180;7954;51.914;8.420;2022-12-29T13:31:26;99114.94;;;16.62
15709;BMP180;7954;51.914;8.420;2022-12-29T13:34:00;99102.41;;;16.91
15709;BMP180;7954;51.914;8.420;2022-12-29T13:36:34;99108.09;;;16.95
15709;BMP180;7954;51.914;8.420;2022-12-29T13:39:08;99100.94;;;17.21
15709;BMP180;7954;51.914;8.420;2022-12-29T13:41:49;99109.31;;;17.20
15709;BMP180;7954;51.914;8.420;2022-12-29T13:44:22;99111.91;;;17.27
15709;BMP180;7954;51.914;8.420;2022-12-29T13:46:51;99143.06;;;17.31
15709;BMP180;7954;51.914;8.420;2022-12-29T13:49:21;99124.31;;;17.31
15709;BMP180;7954;51.914;8.420;2022-12-29T13:51:52;99125.19;;;17.52
15709;BMP180;7954;51.914;8.420;2022-12-29T13:54:30;99151.44;;;17.44
15709;BMP180;7954;51.914;8.420;2022-12-29T13:57:07;99140.50;;;17.38
15709;BMP180;7954;51.914;8.420;2022-12-29T13:59:44;99142.88;;;17.23
15709;BMP180;7954;51.914;8.420;2022-12-29T14:02:24;99168.03;;;17.27
15709;BMP180;7954;51.914;8.420;2022-12-29T14:04:56;99168.41;;;17.30
15709;BMP180;7954;51.914;8.420;2022-12-29T14:07:25;99158.19;;;17.23
15709;BMP180;7954;51.914;8.420;2022-12-29T14:09:55;99155.06;;;17.18
15709;BMP180;7954;51.914;8.420;2022-12-29T14:12:36;99137.78;;;17.37
15709;BMP180;7954;51.914;8.420;2022-12-29T14:15:22;99143.97;;;17.52
15709;BMP180;7954;51.914;8.420;2022-12-29T14:18:05;99139.22;;;17.62
15709;BMP180;7954;51.914;8.420;2022-12-29T14:20:38;99149.78;;;17.44
15709;BMP180;7954;51.914;8.420;2022-12-29T14:23:27;99164.53;;;17.19
15709;BMP180;7954;51.914;8.420;2022-12-29T14:25:58;99166.38;;;17.41
15709;BMP180;7954;51.914;8.420;2022-12-29T14:28:28;99166.94;;;17.45
15709;BMP180;7954;51.914;8.420;2022-12-29T14:30:58;99172.41;;;17.35
15709;BMP180;7954;51.914;8.420;2022-12-29T14:33:30;99175.31;;;17.31
15709;BMP180;7954;51.914;8.420;2022-12-29T14:36:20;99177.84;;;17.24
15709;BMP180;7954;51.914;8.420;2022-12-29T14:38:48;99181.53;;;17.33
15709;BMP180;7954;51.914;8.420;2022-12-29T14:41:26;99185.31;;;17.22
15709;BMP180;7954;51.914;8.420;2022-12-29T14:43:58;99188.25;;;17.32
15709;BMP180;7954;51.914;8.420;2022-12-29T14:49:22;99167.28;;;17.21
15709;BMP180;7954;51.914;8.420;2022-12-29T14:51:53;99186.41;;;17.17
15709;BMP180;7954;51.914;8.420;2022-12-29T14:54:45;99186.63;;;17.26
15709;BMP180;7954;51.914;8.420;2022-12-29T14:57:28;99176.38;;;17.19
15709;BMP180;7954;51.914;8.420;2022-12-29T15:00:02;99195.72;;;17.17